Time;durP1;ratioP1;P1;durP2;ratioP2;P2;SDS_P1;SDS_P2;PMS_P1;PMS_P2;Temp;Humidity;BMP_temperature;BMP_pressure;BME280_temperature;BME280_humidity;BME280_pressure;Samples;Min_cycle;Max_cycle;Signal;HPM_P1;HPM_P2
2021/01/01 00:00:16;;;;;;;192.33;106.03;;;3.30;99.90;;;;;;5050873;28;20437;-80
2021/01/01 00:02:42;;;;;;;179.83;99.97;;;3.30;99.90;;;;;;5029769;28;20437;-80
2021/01/01 00:05:15;;;;;;;153.97;100.20;;;3.30;99.90;;;;;;5030228;28;20361;-79
2021/01/01 00:07:45;;;;;;;164.63;96.63;;;3.30;99.90;;;;;;5065364;28;20417;-79
2021/01/01 00:10:13;;;;;;;153.80;87.70;;;3.30;99.90;;;;;;5048758;28;20351;-80
2021/01/01 00:12:39;;;;;;;137.90;82.63;;;3.20;99.90;;;;;;5063815;28;20816;-79
2021/01/01 00:15:06;;;;;;;140.47;83.37;;;3.30;99.90;;;;;;5028403;28;20438;-80
2021/01/01 00:17:32;;;;;;;140.07;90.57;;;3.30;99.90;;;;;;5049214;28;20361;-77
2021/01/01 00:19:58;;;;;;;163.13;94.27;;;3.30;99.90;;;;;;5041457;28;20812;-78
2021/01/01 00:22:23;;;;;;;153.43;89.57;;;3.30;99.90;;;;;;5015822;28;20235;-78
2021/01/01 00:24:49;;;;;;;152.30;86.30;;;3.40;99.90;;;;;;5039890;28;20390;-79
2021/01/01 00:27:16;;;;;;;135.90;82.33;;;3.40;99.90;;;;;;5062475;28;20214;-79
2021/01/01 00:29:42;;;;;;;140.73;78.77;;;3.40;99.90;;;;;;5027137;28;20680;-79
2021/01/01 00:32:08;;;;;;;124.57;70.57;;;3.40;99.90;;;;;;5066934;28;20413;-79
2021/01/01 00:34:34;;;;;;;125.50;70.30;;;3.30;99.90;;;;;;5047154;28;20961;-79
2021/01/01 00:37:00;;;;;;;129.40;75.20;;;3.30;99.90;;;;;;5048336;28;20401;-79
2021/01/01 00:39:25;;;;;;;135.80;73.00;;;3.30;99.90;;;;;;5035397;28;22755;-79
2021/01/01 00:41:51;;;;;;;120.03;71.50;;;3.30;99.90;;;;;;5010975;28;20420;-79
2021/01/01 00:44:17;;;;;;;140.40;76.10;;;3.30;99.90;;;;;;5060792;28;20209;-79
2021/01/01 00:46:42;;;;;;;138.40;78.17;;;3.30;99.90;;;;;;5013413;28;20213;-79
2021/01/01 00:49:09;;;;;;;149.13;87.60;;;3.30;99.90;;;;;;5046240;28;20205;-79
2021/01/01 00:51:34;;;;;;;146.63;84.73;;;3.40;99.90;;;;;;5028015;28;20694;-80
2021/01/01 00:54:01;;;;;;;160.90;89.60;;;3.40;99.90;;;;;;5045060;28;20469;-79
2021/01/01 00:56:28;;;;;;;177.10;89.53;;;3.30;99.90;;;;;;5046299;28;20243;-80
2021/01/01 00:58:55;;;;;;;148.60;85.17;;;3.30;99.90;;;;;;5063433;28;20401;-79
2021/01/01 01:01:23;;;;;;;149.43;86.60;;;3.30;99.90;;;;;;5041442;28;20474;-79
2021/01/01 01:03:49;;;;;;;152.67;86.43;;;3.30;99.90;;;;;;5028588;28;20784;-79
2021/01/01 01:06:15;;;;;;;153.53;79.70;;;3.30;99.90;;;;;;5032037;28;20897;-79
2021/01/01 01:08:42;;;;;;;154.57;78.43;;;3.30;99.90;;;;;;5047863;28;20414;-79
2021/01/01 01:11:07;;;;;;;132.57;73.23;;;3.30;99.90;;;;;;5072044;28;20694;-80
2021/01/01 01:13:33;;;;;;;139.40;75.00;;;3.20;99.90;;;;;;5063384;28;20459;-79
2021/01/01 01:15:59;;;;;;;130.97;71.73;;;3.30;99.90;;;;;;5034355;28;20232;-79
2021/01/01 01:18:24;;;;;;;136.77;73.47;;;3.20;99.90;;;;;;5051080;28;20664;-79
2021/01/01 01:20:50;;;;;;;129.50;67.73;;;3.30;99.90;;;;;;5039750;28;20588;-79
2021/01/01 01:23:16;;;;;;;121.17;69.07;;;3.20;99.90;;;;;;5048319;28;20366;-79
2021/01/01 01:25:41;;;;;;;134.90;74.63;;;3.30;99.90;;;;;;4993922;28;20590;-79
2021/01/01 01:28:07;;;;;;;128.20;71.73;;;3.30;99.90;;;;;;5031214;28;20232;-79
2021/01/01 01:30:33;;;;;;;120.20;65.13;;;3.30;99.90;;;;;;5030157;28;20205;-79
2021/01/01 01:32:59;;;;;;;120.83;61.77;;;3.40;99.90;;;;;;5025532;28;20224;-79
2021/01/01 01:35:25;;;;;;;104.67;59.23;;;3.40;99.90;;;;;;5047763;28;20336;-79
2021/01/01 01:37:51;;;;;;;90.20;49.93;;;3.40;99.90;;;;;;5047054;28;20397;-79
2021/01/01 01:40:16;;;;;;;95.90;50.33;;;3.30;99.90;;;;;;5027886;28;20209;-79
2021/01/01 01:42:42;;;;;;;76.23;45.60;;;3.30;99.90;;;;;;5032662;28;20263;-79
2021/01/01 01:45:08;;;;;;;76.23;43.70;;;3.30;99.90;;;;;;5024310;28;20222;-79
2021/01/01 01:47:34;;;;;;;75.33;44.43;;;3.20;99.90;;;;;;5030839;28;20264;-79
2021/01/01 01:50:04;;;;;;;75.80;39.93;;;3.20;99.90;;;;;;5062749;28;22180;-79
2021/01/01 01:52:30;;;;;;;71.90;41.93;;;3.20;99.90;;;;;;5028246;28;20381;-79
2021/01/01 01:54:58;;;;;;;70.00;41.57;;;3.10;99.90;;;;;;5066250;28;20840;-79
2021/01/01 01:57:27;;;;;;;76.70;43.23;;;3.10;99.90;;;;;;5068616;28;20427;-80
2021/01/01 01:59:58;;;;;;;73.80;39.90;;;3.00;99.90;;;;;;5063026;28;20968;-80
2021/01/01 02:02:23;;;;;;;74.37;41.00;;;3.00;99.90;;;;;;5043327;28;20428;-80
2021/01/01 02:04:49;;;;;;;68.67;39.70;;;3.00;99.90;;;;;;5071254;28;20418;-79
2021/01/01 02:07:15;;;;;;;82.53;43.90;;;3.00;99.90;;;;;;5048116;28;20774;-79
2021/01/01 02:09:40;;;;;;;65.73;37.63;;;2.90;99.90;;;;;;5040911;28;20385;-80
2021/01/01 02:12:10;;;;;;;70.63;40.93;;;2.90;99.90;;;;;;5057389;28;20219;-80
2021/01/01 02:14:36;;;;;;;82.37;44.70;;;2.90;99.90;;;;;;5027941;28;20972;-79
2021/01/01 02:17:02;;;;;;;76.73;43.20;;;2.90;99.90;;;;;;5037056;28;20435;-79
2021/01/01 02:19:27;;;;;;;81.07;46.03;;;2.90;99.90;;;;;;5010542;28;20204;-79
2021/01/01 02:22:01;;;;;;;81.10;44.67;;;2.90;99.90;;;;;;5032177;28;20502;-79
2021/01/01 02:24:27;;;;;;;97.43;50.97;;;2.80;99.90;;;;;;5023712;28;20653;-79
2021/01/01 02:26:53;;;;;;;94.60;49.80;;;2.90;99.90;;;;;;5066086;28;20452;-79
2021/01/01 02:29:18;;;;;;;95.70;49.93;;;2.80;99.90;;;;;;5046520;28;20444;-79
2021/01/01 02:31:44;;;;;;;93.93;49.70;;;2.80;99.90;;;;;;5047343;28;20568;-80
2021/01/01 02:34:10;;;;;;;84.87;48.10;;;2.80;99.90;;;;;;5030172;28;20252;-80
2021/01/01 02:36:36;;;;;;;79.27;47.73;;;2.80;99.90;;;;;;5037013;28;20267;-79
2021/01/01 02:39:02;;;;;;;107.17;53.47;;;2.80;99.90;;;;;;5009973;28;20209;-80
2021/01/01 02:41:27;;;;;;;96.27;51.27;;;2.80;99.90;;;;;;5049467;28;20424;-79
2021/01/01 02:43:53;;;;;;;93.60;47.40;;;2.80;99.90;;;;;;5050108;28;20549;-79
2021/01/01 02:46:19;;;;;;;90.90;48.27;;;2.70;99.90;;;;;;5050419;28;20214;-79
2021/01/01 02:48:44;;;;;;;95.23;48.17;;;2.70;99.90;;;;;;5044196;28;20675;-79
2021/01/01 02:51:10;;;;;;;86.50;47.90;;;2.60;99.90;;;;;;5049588;28;20672;-80
2021/01/01 02:53:36;;;;;;;74.70;43.60;;;2.60;99.90;;;;;;5027173;28;20212;-79
2021/01/01 02:56:02;;;;;;;64.47;40.73;;;2.60;99.90;;;;;;5013864;28;20210;-79
2021/01/01 02:58:27;;;;;;;74.47;41.13;;;2.60;99.90;;;;;;5032389;28;20212;-78
2021/01/01 03:00:53;;;;;;;71.70;39.83;;;2.60;99.90;;;;;;5035209;28;20405;-78
2021/01/01 03:03:19;;;;;;;73.63;43.40;;;2.70;99.90;;;;;;5047111;28;20669;-78
2021/01/01 03:05:46;;;;;;;67.03;40.70;;;2.70;99.90;;;;;;5038868;28;20221;-78
2021/01/01 03:08:11;;;;;;;65.27;39.20;;;2.70;99.90;;;;;;5039551;28;20263;-78
2021/01/01 03:10:37;;;;;;;76.80;41.73;;;2.70;99.90;;;;;;5032515;28;20480;-78
2021/01/01 03:13:04;;;;;;;88.53;44.77;;;2.80;99.90;;;;;;5046135;28;20217;-78
2021/01/01 03:15:30;;;;;;;75.57;44.90;;;2.90;99.90;;;;;;5046955;28;20451;-80
2021/01/01 03:17:56;;;;;;;82.93;47.07;;;3.00;99.90;;;;;;5045673;28;20412;-79
2021/01/01 03:20:22;;;;;;;91.67;47.03;;;2.90;99.90;;;;;;5042874;28;20431;-79
2021/01/01 03:22:48;;;;;;;86.83;45.90;;;2.80;99.90;;;;;;5062756;28;20217;-78
2021/01/01 03:25:14;;;;;;;78.20;45.43;;;2.80;99.90;;;;;;5018928;28;20441;-79
2021/01/01 03:27:39;;;;;;;90.40;47.63;;;2.80;99.90;;;;;;5031834;28;20209;-79
2021/01/01 03:30:08;;;;;;;80.10;46.57;;;2.80;99.90;;;;;;5072512;28;20209;-79
2021/01/01 03:32:34;;;;;;;89.80;47.30;;;2.80;99.90;;;;;;5067738;28;20206;-79
2021/01/01 03:34:59;;;;;;;99.67;49.97;;;2.80;99.90;;;;;;5069530;28;20409;-79
2021/01/01 03:37:25;;;;;;;72.13;43.80;;;2.80;99.90;;;;;;5013307;28;20314;-79
2021/01/01 03:39:51;;;;;;;80.73;44.60;;;2.70;99.90;;;;;;5010647;28;20198;-79
2021/01/01 03:42:17;;;;;;;75.77;45.10;;;2.70;99.90;;;;;;5035239;28;20420;-79
2021/01/01 03:44:43;;;;;;;70.67;43.10;;;2.80;99.90;;;;;;5031346;28;20389;-79
2021/01/01 03:47:09;;;;;;;72.13;42.97;;;2.80;99.90;;;;;;5016345;28;20205;-79
2021/01/01 03:49:34;;;;;;;69.73;41.40;;;2.80;99.90;;;;;;5045694;28;20213;-78
2021/01/01 03:52:00;;;;;;;77.33;43.10;;;2.80;99.90;;;;;;5048688;28;20210;-76
2021/01/01 03:54:26;;;;;;;75.40;43.60;;;2.80;99.90;;;;;;5032114;28;23000;-77
2021/01/01 03:56:52;;;;;;;64.13;40.00;;;2.80;99.90;;;;;;5069947;28;20201;-77
2021/01/01 03:59:18;;;;;;;69.47;38.97;;;2.80;99.90;;;;;;5051834;28;20413;-77
2021/01/01 04:01:44;;;;;;;79.13;41.53;;;2.80;99.90;;;;;;5067178;28;20222;-77
2021/01/01 04:04:10;;;;;;;66.17;41.30;;;2.80;99.90;;;;;;5050283;28;20390;-77
2021/01/01 04:06:35;;;;;;;66.20;38.80;;;2.80;99.90;;;;;;5029195;28;20206;-77
2021/01/01 04:09:01;;;;;;;73.33;43.50;;;2.70;99.90;;;;;;5026018;28;20220;-77
2021/01/01 04:11:26;;;;;;;63.33;39.30;;;2.80;99.90;;;;;;5047295;28;20221;-77
2021/01/01 04:13:52;;;;;;;66.13;37.70;;;2.70;99.90;;;;;;5029308;28;20790;-77
2021/01/01 04:16:18;;;;;;;81.70;41.33;;;2.80;99.90;;;;;;5027385;28;20264;-77
2021/01/01 04:18:43;;;;;;;73.60;41.07;;;2.80;99.90;;;;;;4990829;28;20212;-77
2021/01/01 04:21:09;;;;;;;69.37;40.27;;;2.70;99.90;;;;;;5036370;28;20304;-77
2021/01/01 04:23:35;;;;;;;64.80;40.00;;;2.70;99.90;;;;;;5051238;28;20236;-76
2021/01/01 04:26:03;;;;;;;71.80;38.33;;;2.70;99.90;;;;;;5047740;28;20224;-77
2021/01/01 04:28:28;;;;;;;70.40;36.93;;;2.70;99.90;;;;;;5027985;28;20439;-77
2021/01/01 04:30:54;;;;;;;66.90;37.67;;;2.70;99.90;;;;;;5064175;28;20847;-77
2021/01/01 04:33:20;;;;;;;61.93;37.47;;;2.70;99.90;;;;;;5062189;28;20236;-77
2021/01/01 04:35:45;;;;;;;56.30;36.80;;;2.70;99.90;;;;;;5065911;28;20727;-77
2021/01/01 04:38:11;;;;;;;62.13;36.23;;;2.70;99.90;;;;;;5027724;28;20216;-77
2021/01/01 04:40:37;;;;;;;57.13;36.47;;;2.70;99.90;;;;;;4999165;28;20219;-77
2021/01/01 04:43:03;;;;;;;59.60;36.00;;;2.70;99.90;;;;;;5032784;28;20223;-77
2021/01/01 04:45:28;;;;;;;62.00;36.30;;;2.70;99.90;;;;;;5050614;28;20774;-77
2021/01/01 04:47:54;;;;;;;59.63;33.87;;;2.70;99.90;;;;;;5031675;28;20211;-77
2021/01/01 04:50:21;;;;;;;57.90;35.60;;;2.60;99.90;;;;;;5064544;28;20897;-77
2021/01/01 04:52:49;;;;;;;51.43;32.60;;;2.60;99.90;;;;;;5047892;28;20451;-77
2021/01/01 04:55:16;;;;;;;60.30;33.40;;;2.60;99.90;;;;;;5042972;28;20404;-77
2021/01/01 04:57:42;;;;;;;49.47;31.90;;;2.50;99.90;;;;;;5018236;28;20377;-77
2021/01/01 05:00:09;;;;;;;58.90;34.90;;;2.50;99.90;;;;;;5045071;28;20406;-77
2021/01/01 05:02:35;;;;;;;58.10;34.13;;;2.50;99.90;;;;;;5041242;28;20263;-77
2021/01/01 05:05:00;;;;;;;56.43;36.03;;;2.50;99.90;;;;;;5043370;28;20512;-78
2021/01/01 05:07:28;;;;;;;64.73;33.13;;;2.50;99.90;;;;;;5009343;28;20216;-77
2021/01/01 05:09:55;;;;;;;56.67;31.23;;;2.50;99.90;;;;;;5027917;28;20572;-77
2021/01/01 05:12:32;;;;;;;54.00;32.23;;;2.40;99.90;;;;;;5028296;28;20917;-77
2021/01/01 05:14:59;;;;;;;54.53;32.93;;;2.40;99.90;;;;;;5025024;28;20439;-77
2021/01/01 05:17:32;;;;;;;52.57;33.23;;;2.40;99.90;;;;;;5060816;28;20401;-77
2021/01/01 05:20:04;;;;;;;53.47;33.10;;;2.40;99.90;;;;;;5047578;28;20396;-77
2021/01/01 05:22:34;;;;;;;62.10;35.50;;;2.40;99.90;;;;;;5047992;28;20425;-77
2021/01/01 05:25:16;;;;;;;51.73;31.13;;;2.40;99.90;;;;;;5044922;28;21228;-77
2021/01/01 05:27:47;;;;;;;54.40;31.93;;;2.40;99.90;;;;;;5026692;28;20464;-77
2021/01/01 05:30:15;;;;;;;51.17;31.20;;;2.40;99.90;;;;;;5022632;28;20459;-77
2021/01/01 05:32:53;;;;;;;56.57;33.53;;;2.40;99.90;;;;;;5025866;28;20390;-77
2021/01/01 05:35:29;;;;;;;57.07;34.50;;;2.40;99.90;;;;;;5032285;28;20428;-77
2021/01/01 05:37:55;;;;;;;51.57;32.00;;;2.40;99.90;;;;;;5046854;28;20478;-77
2021/01/01 05:40:31;;;;;;;49.70;30.53;;;2.40;99.90;;;;;;5056501;28;20482;-77
2021/01/01 05:43:23;;;;;;;51.43;30.20;;;2.50;99.90;;;;;;5027564;28;20411;-77
2021/01/01 05:45:49;;;;;;;53.03;32.73;;;2.50;99.90;;;;;;5033558;28;20430;-77
2021/01/01 05:48:17;;;;;;;59.17;33.07;;;2.60;99.90;;;;;;5047345;28;21091;-77
2021/01/01 05:50:43;;;;;;;51.70;31.67;;;2.60;99.90;;;;;;5021539;28;20815;-76
2021/01/01 05:53:10;;;;;;;45.90;31.03;;;2.60;99.90;;;;;;5013016;28;20534;-77
2021/01/01 05:55:36;;;;;;;54.53;33.63;;;2.50;99.90;;;;;;5046865;28;20564;-77
2021/01/01 05:58:01;;;;;;;52.27;30.57;;;2.50;99.90;;;;;;5040396;28;20406;-77
2021/01/01 06:00:29;;;;;;;54.30;32.87;;;2.50;99.90;;;;;;5050550;28;20415;-78
2021/01/01 06:02:57;;;;;;;53.17;31.43;;;2.40;99.90;;;;;;5069621;28;20221;-77
2021/01/01 06:05:27;;;;;;;51.30;33.17;;;2.40;99.90;;;;;;5049811;28;20976;-77
2021/01/01 06:07:57;;;;;;;56.70;35.20;;;2.40;99.90;;;;;;5064969;28;20413;-77
2021/01/01 06:10:26;;;;;;;56.97;32.80;;;2.40;99.90;;;;;;5052642;28;20479;-77
2021/01/01 06:12:54;;;;;;;47.33;30.93;;;2.30;99.90;;;;;;5027031;28;20789;-77
2021/01/01 06:15:22;;;;;;;64.20;34.07;;;2.40;99.90;;;;;;5042880;28;20419;-77
2021/01/01 06:17:49;;;;;;;59.77;37.20;;;2.40;99.90;;;;;;5051753;28;20406;-77
2021/01/01 06:20:22;;;;;;;52.97;34.47;;;2.40;99.90;;;;;;5026650;28;20674;-77
2021/01/01 06:23:02;;;;;;;52.37;32.63;;;2.40;99.90;;;;;;5044915;28;20397;-77
2021/01/01 06:25:29;;;;;;;58.37;32.43;;;2.30;99.90;;;;;;5042368;28;20391;-77
2021/01/01 06:27:55;;;;;;;54.20;33.90;;;2.30;99.90;;;;;;5044033;28;20407;-77
2021/01/01 06:30:24;;;;;;;56.07;33.00;;;2.30;99.90;;;;;;5028782;28;20421;-77
2021/01/01 06:32:51;;;;;;;53.63;34.20;;;2.30;99.90;;;;;;5039265;28;20489;-77
2021/01/01 06:35:22;;;;;;;62.10;35.20;;;2.30;99.90;;;;;;5040821;28;20973;-77
2021/01/01 06:37:55;;;;;;;53.53;34.00;;;2.30;99.90;;;;;;5060582;28;20463;-77
2021/01/01 06:40:21;;;;;;;50.30;32.27;;;2.30;99.90;;;;;;5040406;28;20429;-77
2021/01/01 06:43:07;;;;;;;52.83;33.30;;;2.20;99.90;;;;;;5022256;28;20433;-76
2021/01/01 06:45:46;;;;;;;56.47;34.10;;;2.20;99.90;;;;;;5035039;28;20682;-77
2021/01/01 06:48:33;;;;;;;63.97;35.80;;;2.20;99.90;;;;;;5026712;28;20444;-77
2021/01/01 06:50:59;;;;;;;59.73;34.83;;;2.20;99.90;;;;;;5041546;28;20841;-76
2021/01/01 06:53:30;;;;;;;57.40;34.70;;;2.30;99.90;;;;;;5021752;28;20457;-76
2021/01/01 06:56:09;;;;;;;52.70;32.43;;;2.30;99.90;;;;;;5032133;28;20309;-77
2021/01/01 06:58:37;;;;;;;58.03;34.03;;;2.30;99.90;;;;;;5047089;28;20385;-76
2021/01/01 07:01:04;;;;;;;52.57;31.80;;;2.20;99.90;;;;;;5046913;28;20420;-77
2021/01/01 07:03:37;;;;;;;53.90;33.67;;;2.20;99.90;;;;;;5053429;28;20404;-78
2021/01/01 07:06:02;;;;;;;62.93;35.50;;;2.20;99.90;;;;;;5040764;28;20860;-77
2021/01/01 07:11:29;;;;;;;61.00;35.10;;;2.20;99.90;;;;;;5058356;28;20258;-77
2021/01/01 07:14:05;;;;;;;59.00;34.93;;;2.20;99.90;;;;;;5065250;28;20988;-78
2021/01/01 07:16:36;;;;;;;64.07;33.83;;;2.20;99.90;;;;;;5051263;28;20429;-77
2021/01/01 07:19:02;;;;;;;58.77;35.43;;;2.10;99.90;;;;;;5059846;28;20407;-76
2021/01/01 07:21:28;;;;;;;61.33;34.53;;;2.10;99.90;;;;;;5061286;28;20423;-77
2021/01/01 07:23:54;;;;;;;59.00;36.73;;;2.00;99.90;;;;;;5058288;28;20402;-76
2021/01/01 07:26:20;;;;;;;63.43;36.00;;;2.10;99.90;;;;;;5045781;28;20271;-77
2021/01/01 07:28:47;;;;;;;61.10;35.70;;;2.10;99.90;;;;;;5046583;28;20598;-76
2021/01/01 07:31:15;;;;;;;67.83;37.63;;;2.10;99.90;;;;;;5033039;28;20772;-77
2021/01/01 07:33:41;;;;;;;65.20;36.90;;;2.00;99.90;;;;;;5030043;28;20483;-76
2021/01/01 07:36:11;;;;;;;66.80;36.27;;;2.00;99.90;;;;;;5027556;28;20438;-76
2021/01/01 07:38:39;;;;;;;74.47;37.80;;;2.10;99.90;;;;;;5047398;28;20263;-78
2021/01/01 07:41:05;;;;;;;65.50;40.87;;;2.20;99.90;;;;;;5045373;28;20430;-76
2021/01/01 07:43:32;;;;;;;71.33;37.37;;;2.20;99.90;;;;;;5045737;28;20921;-78
2021/01/01 07:46:02;;;;;;;69.70;37.80;;;2.20;99.90;;;;;;5047149;28;20413;-76
2021/01/01 07:48:28;;;;;;;63.23;38.30;;;2.20;99.90;;;;;;5048771;28;20417;-75
2021/01/01 07:51:02;;;;;;;66.53;39.23;;;2.20;99.90;;;;;;5041749;28;21436;-76
2021/01/01 07:53:28;;;;;;;68.23;38.60;;;2.20;99.90;;;;;;5059796;28;20422;-76
2021/01/01 07:55:59;;;;;;;72.90;38.33;;;2.20;99.90;;;;;;5060410;28;20405;-76
2021/01/01 07:58:27;;;;;;;74.83;40.50;;;2.20;99.90;;;;;;5045309;28;20307;-76
2021/01/01 08:00:58;;;;;;;74.77;37.83;;;2.30;99.90;;;;;;5049287;28;20426;-76
2021/01/01 08:03:23;;;;;;;74.00;43.07;;;2.30;99.90;;;;;;5065279;28;20842;-76
2021/01/01 08:05:50;;;;;;;78.77;42.33;;;2.40;99.90;;;;;;5017123;28;20409;-76
2021/01/01 08:08:20;;;;;;;75.03;40.03;;;2.30;99.90;;;;;;5031029;28;20248;-76
2021/01/01 08:10:47;;;;;;;78.03;42.90;;;2.40;99.90;;;;;;5054254;28;20527;-76
2021/01/01 08:13:14;;;;;;;65.97;39.60;;;2.40;99.90;;;;;;5049537;28;20420;-76
2021/01/01 08:15:42;;;;;;;67.70;40.00;;;2.50;99.90;;;;;;5044320;28;20511;-77
2021/01/01 08:18:14;;;;;;;70.30;42.53;;;2.40;99.90;;;;;;5016416;28;20449;-76
2021/01/01 08:20:41;;;;;;;81.63;44.13;;;2.50;99.90;;;;;;5065351;28;20397;-76
2021/01/01 08:23:09;;;;;;;84.10;47.40;;;2.40;99.90;;;;;;5036940;28;20442;-76
2021/01/01 08:25:36;;;;;;;82.83;44.77;;;2.50;99.90;;;;;;5065770;28;20392;-76
2021/01/01 08:28:04;;;;;;;82.30;46.53;;;2.50;99.90;;;;;;5038102;28;20394;-77
2021/01/01 08:30:30;;;;;;;75.80;43.60;;;2.60;99.90;;;;;;5061424;28;20371;-78
2021/01/01 08:32:57;;;;;;;81.07;44.80;;;2.60;99.90;;;;;;5049879;28;21067;-77
2021/01/01 08:35:24;;;;;;;93.10;47.93;;;2.70;99.90;;;;;;5047808;28;20409;-77
2021/01/01 08:37:50;;;;;;;97.97;47.80;;;2.70;99.90;;;;;;5018159;28;20493;-77
2021/01/01 08:40:15;;;;;;;82.77;45.40;;;2.60;99.90;;;;;;5033271;28;20875;-77
2021/01/01 08:42:41;;;;;;;85.37;47.50;;;2.70;99.90;;;;;;5035738;28;20229;-77
2021/01/01 08:45:11;;;;;;;101.33;48.83;;;2.70;99.90;;;;;;5050085;28;20208;-78
2021/01/01 08:47:51;;;;;;;80.47;45.53;;;2.80;99.90;;;;;;5051029;28;20208;-77
2021/01/01 08:50:20;;;;;;;86.53;47.33;;;2.80;99.90;;;;;;5049205;28;20416;-77
2021/01/01 08:52:59;;;;;;;95.10;47.77;;;2.80;99.90;;;;;;5044338;28;20386;-77
2021/01/01 08:55:25;;;;;;;90.53;47.10;;;2.90;99.90;;;;;;5034901;28;20445;-77
2021/01/01 08:58:12;;;;;;;80.20;45.70;;;2.90;99.90;;;;;;5061428;28;20369;-77
2021/01/01 09:00:41;;;;;;;86.67;48.27;;;3.00;99.90;;;;;;5047073;28;20408;-77
2021/01/01 09:03:07;;;;;;;78.93;46.70;;;3.10;99.90;;;;;;5034507;28;20387;-77
2021/01/01 09:05:34;;;;;;;89.63;47.17;;;3.10;99.90;;;;;;5052841;28;20437;-77
2021/01/01 09:08:12;;;;;;;84.23;49.50;;;3.30;99.90;;;;;;5030620;28;20417;-77
2021/01/01 09:10:42;;;;;;;86.97;50.17;;;3.10;99.90;;;;;;5053994;28;20475;-76
2021/01/01 09:13:14;;;;;;;86.70;50.37;;;3.10;99.90;;;;;;5050109;28;20433;-77
2021/01/01 09:15:40;;;;;;;101.67;48.20;;;3.20;99.90;;;;;;5070398;28;21046;-77
2021/01/01 09:18:07;;;;;;;88.73;51.20;;;3.20;99.90;;;;;;5047575;28;20555;-78
2021/01/01 09:20:34;;;;;;;83.60;52.23;;;3.30;99.90;;;;;;5030851;28;20289;-77
2021/01/01 09:23:02;;;;;;;89.03;50.20;;;3.30;99.90;;;;;;5066768;28;20401;-77
2021/01/01 09:25:30;;;;;;;89.03;50.63;;;3.40;99.90;;;;;;5054552;28;20502;-77
2021/01/01 09:27:57;;;;;;;77.53;48.80;;;3.50;99.90;;;;;;5044751;28;20871;-77
2021/01/01 09:30:25;;;;;;;90.63;52.20;;;3.70;99.90;;;;;;5063206;28;21102;-77
2021/01/01 09:32:54;;;;;;;108.17;55.33;;;3.80;99.90;;;;;;5029002;28;20539;-78
2021/01/01 09:35:21;;;;;;;103.70;53.13;;;4.00;99.90;;;;;;5066589;28;20464;-77
2021/01/01 09:37:52;;;;;;;101.67;51.20;;;4.00;99.90;;;;;;5065780;28;21105;-78
2021/01/01 09:40:19;;;;;;;107.63;52.50;;;4.10;99.90;;;;;;5066104;28;20384;-77
2021/01/01 09:42:45;;;;;;;108.93;57.30;;;4.10;99.90;;;;;;5032270;28;20984;-77
2021/01/01 09:45:12;;;;;;;99.23;54.53;;;4.00;99.90;;;;;;5031075;28;20447;-77
2021/01/01 09:47:38;;;;;;;106.93;55.33;;;4.00;99.90;;;;;;5049289;28;20785;-77
2021/01/01 09:50:05;;;;;;;100.03;57.00;;;4.10;99.90;;;;;;5068947;28;20435;-77
2021/01/01 09:52:31;;;;;;;108.73;56.33;;;4.20;99.90;;;;;;5051973;28;20699;-78
2021/01/01 09:54:57;;;;;;;103.00;52.53;;;4.10;99.90;;;;;;5063257;28;20427;-77
2021/01/01 09:57:22;;;;;;;90.77;52.10;;;4.20;99.90;;;;;;5032126;28;20953;-77
2021/01/01 09:59:48;;;;;;;106.80;56.63;;;4.30;99.90;;;;;;5051538;28;20285;-77
2021/01/01 10:02:14;;;;;;;111.50;60.03;;;4.30;99.90;;;;;;5050180;28;20330;-77
2021/01/01 10:04:39;;;;;;;108.77;59.10;;;4.20;99.90;;;;;;5050733;28;20229;-77
2021/01/01 10:07:05;;;;;;;105.03;57.17;;;4.20;99.90;;;;;;5067863;28;20220;-77
2021/01/01 10:09:31;;;;;;;100.97;56.77;;;4.30;99.90;;;;;;5068782;28;20205;-77
2021/01/01 10:12:01;;;;;;;97.33;57.17;;;4.20;99.90;;;;;;5041939;28;20213;-77
2021/01/01 10:14:27;;;;;;;102.33;58.90;;;4.10;99.90;;;;;;5051999;28;20909;-78
2021/01/01 10:16:53;;;;;;;105.83;59.77;;;4.20;99.90;;;;;;5024326;28;20498;-77
2021/01/01 10:19:19;;;;;;;113.00;59.87;;;4.20;99.90;;;;;;5051473;28;20243;-77
2021/01/01 10:21:45;;;;;;;108.37;59.50;;;4.30;99.90;;;;;;5034582;28;20239;-77
2021/01/01 10:24:11;;;;;;;107.20;57.80;;;4.30;99.90;;;;;;5052302;28;20501;-78
2021/01/01 10:26:36;;;;;;;108.10;59.53;;;4.30;99.90;;;;;;5051215;28;20304;-77
2021/01/01 10:29:02;;;;;;;113.93;56.27;;;4.30;99.90;;;;;;5031163;28;20205;-78
2021/01/01 10:31:28;;;;;;;105.07;56.03;;;4.40;99.90;;;;;;5033379;28;20634;-77
2021/01/01 10:33:54;;;;;;;103.47;58.70;;;4.40;99.90;;;;;;5032682;28;20438;-77
2021/01/01 10:36:19;;;;;;;102.60;59.33;;;4.70;99.90;;;;;;5032711;28;20210;-77
2021/01/01 10:38:45;;;;;;;116.70;61.43;;;4.90;99.90;;;;;;5000488;28;20219;-77
2021/01/01 10:41:14;;;;;;;113.63;59.70;;;4.90;99.90;;;;;;5033909;28;20542;-77
2021/01/01 10:43:41;;;;;;;111.77;61.57;;;5.30;99.90;;;;;;5049247;28;20267;-77
2021/01/01 10:46:07;;;;;;;102.03;63.43;;;5.60;99.90;;;;;;5050382;28;20856;-78
2021/01/01 10:48:34;;;;;;;106.83;61.10;;;5.60;99.90;;;;;;5043992;28;20950;-77
2021/01/01 10:50:59;;;;;;;111.90;62.23;;;5.40;99.90;;;;;;5056800;28;20954;-77
2021/01/01 10:53:25;;;;;;;99.03;56.90;;;5.70;99.90;;;;;;5053759;28;20525;-76
2021/01/01 10:55:51;;;;;;;125.50;64.60;;;5.70;99.90;;;;;;5054574;28;20244;-76
2021/01/01 10:58:23;;;;;;;123.90;65.13;;;5.40;99.90;;;;;;5035747;28;20201;-77
2021/01/01 11:00:56;;;;;;;107.73;59.87;;;5.10;99.90;;;;;;5050929;28;20213;-76
2021/01/01 11:03:22;;;;;;;106.00;59.60;;;5.10;99.90;;;;;;5031445;28;20949;-77
2021/01/01 11:05:48;;;;;;;104.27;59.70;;;4.80;99.90;;;;;;5052081;28;20401;-76
2021/01/01 11:08:14;;;;;;;99.40;57.03;;;4.70;99.90;;;;;;5067102;28;20410;-76
2021/01/01 11:10:41;;;;;;;107.60;58.10;;;4.70;99.90;;;;;;5073198;28;20494;-77
2021/01/01 11:13:07;;;;;;;109.80;54.50;;;4.90;99.90;;;;;;5036760;28;20559;-77
2021/01/01 12:20:05;;;;;;;53.23;34.43;;;7.90;99.90;;;;;;5043234;28;20446;-77
2021/01/01 12:25:09;;;;;;;56.03;33.83;;;7.60;99.90;;;;;;5044033;28;20491;-76
2021/01/01 12:27:35;;;;;;;57.03;31.53;;;8.20;99.90;;;;;;5067190;28;20937;-77
2021/01/01 12:30:06;;;;;;;57.17;31.27;;;9.10;99.90;;;;;;5046790;28;20424;-76
2021/01/01 12:32:32;;;;;;;43.07;29.00;;;10.00;99.90;;;;;;5077944;28;20459;-77
2021/01/01 12:34:59;;;;;;;43.93;29.60;;;11.20;99.90;;;;;;5058505;28;20889;-77
2021/01/01 12:37:26;;;;;;;41.27;30.70;;;10.30;99.90;;;;;;5069361;28;20429;-78
2021/01/01 12:39:52;;;;;;;47.90;29.10;;;10.90;99.90;;;;;;5072343;28;20422;-77
2021/01/01 12:42:19;;;;;;;43.20;28.53;;;10.60;99.90;;;;;;5040762;28;20412;-77
2021/01/01 12:44:46;;;;;;;40.27;27.27;;;10.80;99.90;;;;;;5057968;28;20245;-77
2021/01/01 12:47:12;;;;;;;39.13;26.20;;;9.20;99.90;;;;;;5056578;28;20466;-77
2021/01/01 12:49:38;;;;;;;42.70;25.77;;;9.20;99.90;;;;;;5057728;28;20580;-76
2021/01/01 12:52:04;;;;;;;45.73;28.60;;;9.00;99.90;;;;;;5034052;28;20417;-76
2021/01/01 12:54:30;;;;;;;38.07;25.10;;;10.10;99.90;;;;;;5056304;28;20200;-77
2021/01/01 12:56:56;;;;;;;40.83;25.80;;;10.40;99.90;;;;;;5036260;28;20427;-77
2021/01/01 12:59:21;;;;;;;36.50;25.30;;;9.90;99.90;;;;;;5075017;28;20690;-77
2021/01/01 13:01:48;;;;;;;40.67;26.10;;;9.00;99.90;;;;;;5051172;28;20703;-78
2021/01/01 13:04:14;;;;;;;33.97;24.70;;;8.70;99.90;;;;;;5065646;28;20216;-77
2021/01/01 13:06:39;;;;;;;34.90;23.37;;;8.50;99.90;;;;;;5054067;28;20794;-77
2021/01/01 13:09:05;;;;;;;41.27;24.00;;;8.30;99.90;;;;;;5037336;28;20213;-76
2021/01/01 13:11:31;;;;;;;41.43;24.40;;;8.60;99.90;;;;;;5050831;28;20556;-78
2021/01/01 13:13:58;;;;;;;35.47;23.90;;;9.10;99.90;;;;;;5054869;28;20718;-77
2021/01/01 13:16:25;;;;;;;34.43;22.67;;;9.60;99.90;;;;;;5074432;28;20430;-76
2021/01/01 13:18:52;;;;;;;36.00;24.23;;;9.50;99.90;;;;;;5043319;28;20404;-77
2021/01/01 13:21:29;;;;;;;32.37;23.40;;;8.90;99.90;;;;;;5040667;28;20402;-77
2021/01/01 13:23:55;;;;;;;32.20;22.77;;;9.20;99.90;;;;;;5059551;28;20483;-77
2021/01/01 13:26:22;;;;;;;36.27;23.87;;;8.80;99.90;;;;;;5056162;28;20496;-77
2021/01/01 13:28:49;;;;;;;33.60;23.43;;;8.50;99.90;;;;;;5073711;28;20445;-77
2021/01/01 13:31:15;;;;;;;34.60;22.70;;;8.70;99.90;;;;;;5038097;28;20433;-77
2021/01/01 13:33:42;;;;;;;27.57;20.47;;;8.10;99.90;;;;;;5049435;28;20909;-78
2021/01/01 13:36:18;;;;;;;40.00;23.90;;;8.50;99.90;;;;;;5056957;28;20458;-78
2021/01/01 13:38:45;;;;;;;34.87;23.77;;;9.10;99.90;;;;;;5043238;28;20428;-77
2021/01/01 13:41:13;;;;;;;35.20;23.47;;;8.90;99.90;;;;;;5070756;28;20439;-77
2021/01/01 13:43:39;;;;;;;31.90;23.53;;;8.80;99.90;;;;;;5056188;28;20424;-78